Point Lay Lrrs Airport
PPIZ : rendu visible

Aérodrome :











RETROUVEZ-NOUS SUR...

 
LOGIN :

S'inscrire | Disclaimer

   EN    FR    IT 

 









Légende :    VFR   VFR Marginal   IFR   IFR Intensif   IFR Très Intensif
Visi : 
Plafond : 
>= 8 km
>= 3000ft
5 à 8 km
1000 à 3000 ft
1500m à 5 km
500 à 1000 ft
800 à 1500m
200 à 500 ft
< 800m
< 200 ft
Symboles :   Orages  Brouillard  Fortes neiges  Fortes précipitations  Vent > 20 kt






- Altitude de l'aérodrome : 22 ft
- Code IATA : PIZ


PPIZ - Point Lay Lrrs

DERNIER METAR :
  • 072256Z AUTO 20015KT 10SM M15/M18 A2995 RMK AO2 SLP148 T11501178 FZRANO $

METARs EXPIRÉS :
  • 072156Z AUTO 18011KT 10SM M17/M19 A2996 RMK AO2 SLP151 T11721194 FZRANO $
  • 072056Z AUTO 18010KT 10SM M19/M22 A2997 RMK AO2 SLP152 T11941217 53004 FZRANO $

TAF N/A



MET'MAP, la Météo Aéronautique d'un coup d'oeil ! - Copyright ORBIFLY Décembre 2007 - Disclaimer

ORBIFLY MET'MAP TEAM :

Programmation & Développement : Alexandra Zaïnal
Sur une idée originale de : Baudouin d'Aumeries
Assistance à la programmation : Marc-Olivier Méhu
Soutien technique & logistique : Manuel Goepfert

Contact : metmap@orbifly.com




SOURCES & CREDITS :

   NOAA       Earth
Advisory